Time;durP1;ratioP1;P1;durP2;ratioP2;P2;SDS_P1;SDS_P2;PMS_P1;PMS_P2;Temp;Humidity;BMP_temperature;BMP_pressure;BME280_temperature;BME280_humidity;BME280_pressure;Samples;Min_cycle;Max_cycle;Signal;HPM_P1;HPM_P2
2021/04/25 00:01:33;;;;;;;;;;;;;;;18.53;68.17;101381.47;5015256;28;1906;-58
2021/04/25 00:03:59;;;;;;;;;;;;;;;18.37;68.20;101380.94;5015615;28;1401;-58
2021/04/25 00:06:25;;;;;;;;;;;;;;;18.22;66.92;101374.91;5015226;28;1358;-58
2021/04/25 00:08:51;;;;;;;;;;;;;;;18.14;64.15;101378.16;5017180;28;1280;-59
2021/04/25 00:11:18;;;;;;;;;;;;;;;18.11;65.07;101375.72;5014185;28;1473;-58
2021/04/25 00:13:44;;;;;;;;;;;;;;;18.24;63.53;101364.94;5013085;28;1430;-59
2021/04/25 00:16:10;;;;;;;;;;;;;;;18.38;64.08;101366.56;5005481;28;1308;-59
2021/04/25 00:18:36;;;;;;;;;;;;;;;18.45;63.77;101367.81;5008900;28;1064;-57
2021/04/25 00:21:03;;;;;;;;;;;;;;;18.50;63.94;101368.31;5013816;28;1985;-59
2021/04/25 00:23:30;;;;;;;;;;;;;;;18.51;64.15;101377.22;5009449;28;1448;-57
2021/04/25 00:25:56;;;;;;;;;;;;;;;18.55;64.21;101367.97;5005802;28;1627;-57
2021/04/25 00:28:23;;;;;;;;;;;;;;;18.53;64.62;101362.72;5011788;28;1392;-59
2021/04/25 00:30:49;;;;;;;;;;;;;;;18.56;64.54;101375.91;5007452;28;1515;-59
2021/04/25 00:33:15;;;;;;;;;;;;;;;18.57;64.63;101361.53;5006362;28;1216;-59
2021/04/25 00:35:42;;;;;;;;;;;;;;;18.58;64.75;101373.06;5005310;28;1711;-59
2021/04/25 00:38:08;;;;;;;;;;;;;;;18.58;64.70;101382.00;5010827;28;1815;-59
2021/04/25 00:40:34;;;;;;;;;;;;;;;18.57;64.92;101372.22;5003016;28;1902;-57
2021/04/25 00:43:00;;;;;;;;;;;;;;;18.57;64.91;101372.22;5006736;28;1455;-59
2021/04/25 00:45:27;;;;;;;;;;;;;;;18.57;65.02;101374.91;5007040;28;1253;-57
2021/04/25 00:47:54;;;;;;;;;;;;;;;18.57;65.05;101377.59;5006902;28;1383;-59
2021/04/25 00:50:21;;;;;;;;;;;;;;;18.57;65.23;101366.88;5009214;28;1174;-58
2021/04/25 00:52:48;;;;;;;;;;;;;;;18.54;65.21;101371.59;5004989;28;1596;-59
2021/04/25 00:55:16;;;;;;;;;;;;;;;18.52;65.37;101361.00;5009947;28;1762;-57
2021/04/25 00:57:43;;;;;;;;;;;;;;;18.55;65.38;101373.34;5007326;28;1372;-57
2021/04/25 01:00:11;;;;;;;;;;;;;;;18.54;65.53;101366.25;5006707;28;1639;-59
2021/04/25 01:02:38;;;;;;;;;;;;;;;18.53;65.63;101373.44;5008079;28;1974;-59
2021/04/25 01:05:06;;;;;;;;;;;;;;;18.53;65.64;101368.09;5004721;28;1870;-59
2021/04/25 01:07:32;;;;;;;;;;;;;;;18.53;65.63;101370.75;5010603;28;1809;-57
2021/04/25 01:09:58;;;;;;;;;;;;;;;18.51;65.65;101377.22;5007016;28;1399;-59
2021/04/25 01:12:24;;;;;;;;;;;;;;;18.51;65.73;101362.00;5007555;28;1579;-58
2021/04/25 01:14:51;;;;;;;;;;;;;;;18.51;65.88;101371.84;5006054;28;1432;-58
2021/04/25 01:17:17;;;;;;;;;;;;;;;18.50;66.19;101365.63;5006699;28;1627;-59
2021/04/25 01:19:44;;;;;;;;;;;;;;;18.44;66.00;101360.75;5004838;28;1045;-58
2021/04/25 01:22:11;;;;;;;;;;;;;;;18.47;65.90;101355.16;5002113;28;1910;-58
2021/04/25 01:24:37;;;;;;;;;;;;;;;18.48;66.05;101363.09;5006337;28;1878;-58
2021/04/25 01:27:03;;;;;;;;;;;;;;;18.45;66.05;101354.44;5006350;28;1396;-59
2021/04/25 01:29:29;;;;;;;;;;;;;;;18.45;65.97;101355.28;5012330;28;1515;-58
2021/04/25 01:31:56;;;;;;;;;;;;;;;18.47;66.06;101365.88;5004326;28;1576;-60
2021/04/25 01:34:22;;;;;;;;;;;;;;;18.46;66.07;101357.00;5007254;28;1070;-59
2021/04/25 01:36:48;;;;;;;;;;;;;;;18.43;66.02;101354.53;5010697;28;1778;-58
2021/04/25 01:39:15;;;;;;;;;;;;;;;18.43;65.85;101362.56;5008379;28;1615;-59
2021/04/25 01:41:41;;;;;;;;;;;;;;;18.44;66.31;101355.38;5004052;28;1989;-59
2021/04/25 01:44:07;;;;;;;;;;;;;;;18.45;66.02;101368.66;5003640;28;1432;-60
2021/04/25 01:46:34;;;;;;;;;;;;;;;18.45;65.94;101363.31;5004615;28;1628;-60
2021/04/25 01:49:00;;;;;;;;;;;;;;;18.46;65.87;101353.44;5012641;28;1345;-59
2021/04/25 01:51:26;;;;;;;;;;;;;;;18.47;66.35;101363.19;5012303;28;1719;-59
2021/04/25 01:53:52;;;;;;;;;;;;;;;18.46;66.13;101365.03;5006049;28;1625;-58
2021/04/25 01:56:19;;;;;;;;;;;;;;;18.46;65.84;101359.69;5010235;28;1357;-60
2021/04/25 01:58:45;;;;;;;;;;;;;;;18.44;65.92;101345.56;5011603;28;1977;-60
2021/04/25 02:01:11;;;;;;;;;;;;;;;18.47;66.37;101355.16;5016769;23;2005;-50
2021/04/25 02:03:38;;;;;;;;;;;;;;;18.44;66.36;101345.56;5008563;28;1963;-49
2021/04/25 02:06:05;;;;;;;;;;;;;;;18.42;66.42;101351.97;5012574;28;1867;-51
2021/04/25 02:08:31;;;;;;;;;;;;;;;18.45;66.58;101357.97;5011004;28;1458;-50
2021/04/25 02:10:57;;;;;;;;;;;;;;;18.43;65.97;101340.31;5036436;23;3569;-58
2021/04/25 02:13:24;;;;;;;;;;;;;;;18.47;66.57;101349.81;5050323;28;1565;-59
2021/04/25 02:15:51;;;;;;;;;;;;;;;18.43;66.31;101353.69;5052489;28;1601;-58
2021/04/25 02:18:17;;;;;;;;;;;;;;;18.44;66.92;101350.03;5051958;28;1618;-59
2021/04/25 02:20:43;;;;;;;;;;;;;;;18.43;66.56;101346.50;5053208;28;1984;-59
2021/04/25 02:23:09;;;;;;;;;;;;;;;18.46;66.83;101353.44;5052191;28;1717;-58
2021/04/25 02:25:35;;;;;;;;;;;;;;;18.45;66.44;101349.06;5052484;28;1705;-59
2021/04/25 02:28:01;;;;;;;;;;;;;;;18.41;66.66;101351.13;5052178;28;1788;-58
2021/04/25 02:30:30;;;;;;;;;;;;;;;18.40;66.67;101344.09;5052570;28;1613;-59
2021/04/25 02:32:56;;;;;;;;;;;;;;;18.40;66.81;101345.88;5052058;28;1374;-59
2021/04/25 02:35:23;;;;;;;;;;;;;;;18.56;66.06;101338.41;5053236;28;1038;-58
2021/04/25 02:37:49;;;;;;;;;;;;;;;19.21;64.68;101344.06;5052380;28;1768;-60
2021/04/25 02:40:17;;;;;;;;;;;;;;;19.67;62.73;101338.50;5051531;28;1549;-58
2021/04/25 02:42:43;;;;;;;;;;;;;;;19.91;62.54;101333.94;5051975;28;1906;-58
2021/04/25 02:45:14;;;;;;;;;;;;;;;19.91;62.21;101331.28;5052234;28;1570;-59
2021/04/25 02:47:42;;;;;;;;;;;;;;;20.02;62.43;101329.41;5051940;28;1574;-59
2021/04/25 02:50:09;;;;;;;;;;;;;;;20.07;62.10;101326.31;5053023;28;973;-60
2021/04/25 02:52:35;;;;;;;;;;;;;;;20.10;61.79;101326.06;5052133;28;1708;-60
2021/04/25 02:55:01;;;;;;;;;;;;;;;20.12;62.04;101334.84;5051506;28;1372;-58
2021/04/25 02:57:27;;;;;;;;;;;;;;;20.22;62.04;101340.28;5051719;28;1578;-58
2021/04/25 02:59:53;;;;;;;;;;;;;;;20.35;61.49;101323.97;5051679;28;1480;-58
2021/04/25 03:02:19;;;;;;;;;;;;;;;20.34;61.86;101338.41;5066997;28;1980;-60
2021/04/25 03:04:46;;;;;;;;;;;;;;;20.32;61.58;101313.50;5071706;28;1579;-58
2021/04/25 03:07:12;;;;;;;;;;;;;;;20.22;61.24;101324.19;5072132;28;1450;-58
2021/04/25 03:09:38;;;;;;;;;;;;;;;20.23;61.89;101336.63;5070959;28;1663;-58
2021/04/25 03:12:05;;;;;;;;;;;;;;;20.20;61.85;101335.06;5071401;28;1378;-60
2021/04/25 03:14:31;;;;;;;;;;;;;;;20.18;61.55;101334.31;5071837;28;1577;-58
2021/04/25 03:16:57;;;;;;;;;;;;;;;20.19;62.11;101330.69;5071683;28;1565;-59
2021/04/25 03:19:24;;;;;;;;;;;;;;;20.17;61.57;101332.59;5070271;28;2011;-60
2021/04/25 03:21:51;;;;;;;;;;;;;;;20.19;61.30;101333.34;5071782;28;1981;-60
2021/04/25 03:24:18;;;;;;;;;;;;;;;20.21;61.70;101344.81;5070377;28;1309;-60
2021/04/25 03:26:45;;;;;;;;;;;;;;;20.16;61.77;101338.97;5075355;28;1259;-59
2021/04/25 03:29:11;;;;;;;;;;;;;;;20.19;61.46;101329.81;5074149;28;1636;-60
2021/04/25 03:31:37;;;;;;;;;;;;;;;20.20;61.46;101337.72;5075172;28;1628;-60
2021/04/25 03:34:03;;;;;;;;;;;;;;;20.22;61.47;101341.13;5075941;28;1557;-60
2021/04/25 03:36:29;;;;;;;;;;;;;;;20.24;61.79;101332.97;5075536;28;1771;-60
2021/04/25 03:38:57;;;;;;;;;;;;;;;20.24;61.54;101333.81;5073772;28;1262;-58
2021/04/25 03:41:23;;;;;;;;;;;;;;;20.24;61.82;101339.19;5075526;28;1906;-60
2021/04/25 03:43:49;;;;;;;;;;;;;;;20.24;61.67;101341.03;5071432;28;1497;-60
2021/04/25 03:46:15;;;;;;;;;;;;;;;20.38;61.68;101334.47;5075467;28;1617;-60
2021/04/25 03:48:41;;;;;;;;;;;;;;;20.40;61.55;101343.25;5075992;28;1377;-60
2021/04/25 03:51:07;;;;;;;;;;;;;;;20.55;60.80;101335.69;5074848;28;1454;-62
2021/04/25 03:53:33;;;;;;;;;;;;;;;20.57;60.41;101342.66;5075819;28;1101;-67
2021/04/25 03:56:00;;;;;;;;;;;;;;;20.49;61.57;101346.97;5069974;28;1524;-62
2021/04/25 03:58:26;;;;;;;;;;;;;;;20.07;62.26;101350.47;5075007;28;1520;-71
2021/04/25 04:00:52;;;;;;;;;;;;;;;19.82;62.88;101349.84;5074707;28;1971;-63
2021/04/25 04:03:18;;;;;;;;;;;;;;;19.63;63.53;101346.94;5074723;28;1469;-62
2021/04/25 04:05:44;;;;;;;;;;;;;;;19.47;63.86;101361.59;5070553;28;1282;-62
2021/04/25 04:08:10;;;;;;;;;;;;;;;19.34;64.30;101347.47;5075492;28;1373;-63
2021/04/25 04:10:36;;;;;;;;;;;;;;;19.27;64.59;101360.50;5068177;28;1560;-64
2021/04/25 04:13:03;;;;;;;;;;;;;;;19.25;64.36;101366.97;5074820;28;1567;-62
2021/04/25 04:15:29;;;;;;;;;;;;;;;19.23;64.41;101364.41;5072079;28;1571;-63
2021/04/25 04:17:55;;;;;;;;;;;;;;;19.23;64.44;101366.25;5074683;28;1636;-64
2021/04/25 04:20:21;;;;;;;;;;;;;;;19.22;64.89;101364.56;5075617;28;1206;-62
2021/04/25 04:22:47;;;;;;;;;;;;;;;19.19;64.43;101362.94;5074403;28;1969;-61
2021/04/25 04:25:13;;;;;;;;;;;;;;;19.20;64.72;101366.47;5069975;28;1521;-61
2021/04/25 04:27:39;;;;;;;;;;;;;;;19.17;64.96;101374.78;5072894;28;1401;-60
2021/04/25 04:30:07;;;;;;;;;;;;;;;19.13;65.29;101373.31;5072280;28;1565;-60
2021/04/25 04:32:33;;;;;;;;;;;;;;;19.10;65.40;101369.06;5067221;28;1363;-59
2021/04/25 04:35:00;;;;;;;;;;;;;;;19.10;65.40;101368.19;5070283;28;1414;-58
2021/04/25 04:37:26;;;;;;;;;;;;;;;18.90;61.53;101384.03;5071635;28;1639;-58
2021/04/25 04:39:52;;;;;;;;;;;;;;;18.56;62.97;101389.28;5073304;28;1627;-57
2021/04/25 04:42:18;;;;;;;;;;;;;;;18.43;63.90;101391.19;5072396;28;1918;-59
2021/04/25 04:44:44;;;;;;;;;;;;;;;18.42;65.77;101394.81;5071866;28;1322;-57
2021/04/25 04:47:11;;;;;;;;;;;;;;;18.47;65.88;101400.69;5073056;28;1389;-56
2021/04/25 04:49:37;;;;;;;;;;;;;;;18.47;65.33;101393.50;5074941;28;1152;-59
2021/04/25 04:52:04;;;;;;;;;;;;;;;18.42;64.82;101386.78;5074115;28;1715;-59
2021/04/25 04:54:30;;;;;;;;;;;;;;;18.42;64.28;101389.47;5073631;28;1636;-56
2021/04/25 04:56:56;;;;;;;;;;;;;;;18.42;64.24;101390.34;5073142;28;1448;-59
2021/04/25 04:59:22;;;;;;;;;;;;;;;18.43;64.67;101392.03;5072930;28;1484;-60
2021/04/25 05:01:48;;;;;;;;;;;;;;;18.41;64.27;101377.91;5074442;28;1975;-58
2021/04/25 05:04:16;;;;;;;;;;;;;;;18.36;64.29;101395.28;5069813;28;1481;-59
2021/04/25 05:06:42;;;;;;;;;;;;;;;18.37;64.29;101397.00;5071338;28;1342;-61
2021/04/25 05:09:08;;;;;;;;;;;;;;;18.36;63.90;101395.28;5072831;28;1465;-66
2021/04/25 05:11:34;;;;;;;;;;;;;;;18.34;63.40;101411.47;5063845;28;1399;-65
2021/04/25 05:14:00;;;;;;;;;;;;;;;18.37;62.78;101395.19;5071209;28;1394;-62
2021/04/25 05:16:27;;;;;;;;;;;;;;;18.57;63.25;101393.66;5071468;28;1520;-63
2021/04/25 05:18:53;;;;;;;;;;;;;;;18.68;62.59;101396.38;5072172;28;1326;-68
2021/04/25 05:21:20;;;;;;;;;;;;;;;18.80;62.62;101396.41;5062541;28;1984;-63
2021/04/25 05:23:46;;;;;;;;;;;;;;;18.83;62.79;101398.88;5059330;28;1446;-61
2021/04/25 05:26:12;;;;;;;;;;;;;;;18.86;62.76;101394.13;5062215;28;1474;-64
2021/04/25 05:28:38;;;;;;;;;;;;;;;19.05;62.41;101401.56;5063958;28;1378;-63
2021/04/25 05:31:04;;;;;;;;;;;;;;;19.15;62.39;101400.88;5061994;28;1354;-70
2021/04/25 05:33:30;;;;;;;;;;;;;;;19.24;61.87;101386.75;5070417;28;1354;-66
2021/04/25 05:35:57;;;;;;;;;;;;;;;19.44;61.40;101393.19;5065856;28;1339;-66
2021/04/25 05:38:24;;;;;;;;;;;;;;;19.52;62.11;101390.75;5063390;28;1395;-66
2021/04/25 05:40:50;;;;;;;;;;;;;;;19.62;61.95;101396.22;5065931;28;1987;-71
2021/04/25 05:43:16;;;;;;;;;;;;;;;19.68;61.33;101385.84;5061591;28;1759;-71
2021/04/25 05:45:42;;;;;;;;;;;;;;;19.75;61.04;101374.63;5062159;28;1740;-66
2021/04/25 05:48:08;;;;;;;;;;;;;;;19.81;61.17;101383.00;5067967;28;1477;-64
2021/04/25 05:50:34;;;;;;;;;;;;;;;19.82;61.45;101376.69;5062303;28;1363;-63
2021/04/25 05:53:01;;;;;;;;;;;;;;;19.82;61.12;101379.38;5060867;28;1803;-63
2021/04/25 05:55:28;;;;;;;;;;;;;;;19.83;60.76;101385.59;5062520;28;1527;-62
2021/04/25 05:57:55;;;;;;;;;;;;;;;19.83;60.82;101389.09;5061901;28;1506;-63
2021/04/25 06:00:22;;;;;;;;;;;;;;;19.84;61.38;101385.47;5063102;28;1479;-63
2021/04/25 06:02:48;;;;;;;;;;;;;;;19.89;61.91;101385.06;5066061;28;1898;-62
2021/04/25 06:05:15;;;;;;;;;;;;;;;19.92;61.52;101378.63;5065403;28;1450;-69
2021/04/25 06:07:41;;;;;;;;;;;;;;;19.92;61.65;101375.94;5063298;28;1676;-64
2021/04/25 06:10:08;;;;;;;;;;;;;;;19.93;61.74;101393.72;5059951;28;1488;-61
2021/04/25 06:12:35;;;;;;;;;;;;;;;19.88;62.56;101380.69;5062279;28;1367;-73
2021/04/25 06:15:01;;;;;;;;;;;;;;;19.93;61.81;101388.38;5066406;28;1331;-73
2021/04/25 06:17:27;;;;;;;;;;;;;;;19.84;61.00;101382.78;5067978;28;1368;-61
2021/04/25 06:19:53;;;;;;;;;;;;;;;19.80;60.21;101378.63;5064108;28;1400;-59
2021/04/25 06:22:19;;;;;;;;;;;;;;;19.77;61.48;101378.88;5062520;28;1902;-65
2021/04/25 06:24:45;;;;;;;;;;;;;;;19.78;62.50;101383.28;5063753;28;1417;-54
2021/04/25 06:27:11;;;;;;;;;;;;;;;19.84;60.28;101388.16;5066268;28;1636;-57
2021/04/25 06:29:38;;;;;;;;;;;;;;;19.80;61.46;101378.63;5071689;28;1596;-59
2021/04/25 06:32:05;;;;;;;;;;;;;;;19.99;60.29;101377.13;5069379;28;1704;-60
2021/04/25 06:34:31;;;;;;;;;;;;;;;19.91;58.54;101390.31;5068963;28;1470;-58
2021/04/25 06:36:57;;;;;;;;;;;;;;;19.52;56.82;101387.19;5068483;28;1720;-58
2021/04/25 06:39:23;;;;;;;;;;;;;;;18.88;54.68;101396.69;5063850;28;1442;-58
2021/04/25 06:41:49;;;;;;;;;;;;;;;18.94;54.26;101377.47;5065639;28;1969;-58
2021/04/25 06:44:15;;;;;;;;;;;;;;;19.12;53.79;101377.84;5069192;28;1413;-58
2021/04/25 06:46:43;;;;;;;;;;;;;;;19.16;54.20;101373.06;5066702;28;1523;-59
2021/04/25 06:49:10;;;;;;;;;;;;;;;19.19;52.47;101378.19;5066215;28;1748;-58
2021/04/25 06:51:36;;;;;;;;;;;;;;;19.07;52.56;101383.53;5062149;28;1563;-58
2021/04/25 06:54:02;;;;;;;;;;;;;;;19.17;52.07;101380.16;5064941;28;1539;-58
2021/04/25 06:56:28;;;;;;;;;;;;;;;18.93;53.56;101364.16;5064819;28;1449;-58
2021/04/25 06:58:55;;;;;;;;;;;;;;;18.94;52.61;101374.78;5063107;28;1372;-58
2021/04/25 07:01:21;;;;;;;;;;;;;;;19.18;49.95;101369.31;5063073;28;1993;-59
2021/04/25 07:03:49;;;;;;;;;;;;;;;18.95;49.24;101379.16;5063743;28;1515;-58
2021/04/25 07:06:16;;;;;;;;;;;;;;;18.92;48.55;101379.41;5062430;28;1518;-58
2021/04/25 07:08:43;;;;;;;;;;;;;;;18.95;48.85;101372.94;5063866;28;1461;-59
2021/04/25 07:11:09;;;;;;;;;;;;;;;18.94;51.00;101356.03;5060665;28;1612;-58
2021/04/25 07:13:35;;;;;;;;;;;;;;;18.94;47.32;101364.06;5060931;28;1281;-58
2021/04/25 07:16:01;;;;;;;;;;;;;;;18.48;50.43;101368.44;5064806;28;1328;-58
2021/04/25 07:18:27;;;;;;;;;;;;;;;18.77;49.59;101361.81;5058409;28;1588;-58
2021/04/25 07:20:55;;;;;;;;;;;;;;;18.95;48.94;101367.59;5057654;28;1899;-58
2021/04/25 07:23:22;;;;;;;;;;;;;;;19.14;44.90;101357.13;5062789;28;1634;-58
2021/04/25 07:25:48;;;;;;;;;;;;;;;19.01;45.35;101359.91;5063302;28;1464;-58
2021/04/25 07:28:14;;;;;;;;;;;;;;;18.95;43.73;101365.75;5064808;28;1731;-58
2021/04/25 07:30:41;;;;;;;;;;;;;;;19.03;42.26;101352.59;5061045;28;1303;-58
2021/04/25 07:33:07;;;;;;;;;;;;;;;19.04;39.79;101357.00;5055689;28;1729;-58
2021/04/25 07:35:33;;;;;;;;;;;;;;;18.81;42.39;101360.63;5064315;28;1295;-58
2021/04/25 07:38:00;;;;;;;;;;;;;;;18.99;41.02;101359.16;5063923;28;1390;-58
2021/04/25 07:40:26;;;;;;;;;;;;;;;18.98;41.98;101351.25;5065739;28;1178;-58
2021/04/25 07:42:52;;;;;;;;;;;;;;;18.96;39.35;101346.03;5064245;28;1937;-58
2021/04/25 07:45:18;;;;;;;;;;;;;;;18.97;37.68;101350.41;5064387;28;1383;-58
2021/04/25 07:47:44;;;;;;;;;;;;;;;18.93;36.94;101367.69;5057058;28;1751;-58
2021/04/25 07:50:11;;;;;;;;;;;;;;;18.88;37.91;101353.81;5062472;28;1310;-58
2021/04/25 07:52:37;;;;;;;;;;;;;;;18.71;39.19;101347.06;5062338;28;2116;-58
2021/04/25 07:55:05;;;;;;;;;;;;;;;18.79;39.67;101343.78;5063076;28;1514;-58
2021/04/25 07:57:31;;;;;;;;;;;;;;;18.86;39.60;101334.31;5064811;28;1355;-58
2021/04/25 07:59:58;;;;;;;;;;;;;;;18.67;38.72;101338.41;5064997;28;1644;-58
2021/04/25 08:02:24;;;;;;;;;;;;;;;18.76;39.95;101333.28;5067718;28;1902;-58
2021/04/25 08:04:50;;;;;;;;;;;;;;;18.94;40.86;101337.25;5068311;28;1506;-58
2021/04/25 08:07:17;;;;;;;;;;;;;;;19.14;40.21;101326.75;5065940;28;1569;-58
2021/04/25 08:09:43;;;;;;;;;;;;;;;19.20;40.06;101326.25;5063072;28;1314;-58
2021/04/25 08:12:10;;;;;;;;;;;;;;;19.10;38.36;101322.63;5072877;28;1459;-58
2021/04/25 08:14:37;;;;;;;;;;;;;;;18.84;37.74;101314.81;5067685;28;1561;-64
2021/04/25 08:17:03;;;;;;;;;;;;;;;19.02;39.52;101316.06;5067878;28;1186;-55
2021/04/25 08:19:29;;;;;;;;;;;;;;;19.15;38.20;101313.22;5071897;28;1430;-56
2021/04/25 08:21:55;;;;;;;;;;;;;;;19.20;38.17;101316.41;5073080;28;1975;-62
2021/04/25 08:24:21;;;;;;;;;;;;;;;19.19;39.56;101303.97;5069329;28;1688;-64
2021/04/25 08:26:47;;;;;;;;;;;;;;;19.22;40.04;101302.88;5073346;28;1394;-62
2021/04/25 08:29:14;;;;;;;;;;;;;;;19.22;40.24;101303.72;5072893;28;1287;-60
2021/04/25 08:31:40;;;;;;;;;;;;;;;18.84;39.09;101315.69;5069048;28;1620;-64
2021/04/25 08:34:07;;;;;;;;;;;;;;;18.80;41.24;101297.28;5068382;28;1355;-60
2021/04/25 08:36:33;;;;;;;;;;;;;;;18.98;38.78;101300.31;5070070;28;1378;-60
2021/04/25 08:38:59;;;;;;;;;;;;;;;19.00;39.49;101288.53;5072515;28;1542;-62
2021/04/25 08:41:26;;;;;;;;;;;;;;;18.95;40.40;101288.03;5073188;28;1985;-60
2021/04/25 08:43:52;;;;;;;;;;;;;;;19.01;37.96;101276.81;5061129;28;1385;-64
2021/04/25 08:46:20;;;;;;;;;;;;;;;19.21;36.50;101290.44;5068487;28;1448;-65
2021/04/25 08:48:47;;;;;;;;;;;;;;;19.12;37.29;101281.31;5071966;28;1338;-61
2021/04/25 08:51:14;;;;;;;;;;;;;;;19.15;38.68;101280.22;5065419;28;1683;-61
2021/04/25 08:53:40;;;;;;;;;;;;;;;19.01;39.29;101281.31;5069660;28;1315;-62
2021/04/25 08:56:06;;;;;;;;;;;;;;;18.85;37.58;101293.25;5068938;28;1696;-62
2021/04/25 08:58:33;;;;;;;;;;;;;;;19.04;38.57;101273.91;5070496;28;1731;-64
2021/04/25 09:00:59;;;;;;;;;;;;;;;18.88;40.29;101268.06;5072965;28;1539;-61
2021/04/25 09:03:26;;;;;;;;;;;;;;;18.90;39.00;101276.84;5070681;28;1909;-64
2021/04/25 09:05:54;;;;;;;;;;;;;;;18.98;39.62;101274.41;5068520;28;1301;-60
2021/04/25 09:08:20;;;;;;;;;;;;;;;19.15;38.09;101261.44;5070271;28;1370;-60
2021/04/25 09:10:52;;;;;;;;;;;;;;;19.16;36.96;101271.19;5072528;28;1342;-61
2021/04/25 09:13:20;;;;;;;;;;;;;;;18.96;38.88;101260.28;5071873;28;1482;-65
2021/04/25 09:15:46;;;;;;;;;;;;;;;19.13;37.73;101260.72;5071527;28;1629;-64
2021/04/25 09:18:13;;;;;;;;;;;;;;;19.15;36.60;101272.19;5072171;28;1571;-64
2021/04/25 09:20:43;;;;;;;;;;;;;;;18.95;38.64;101255.88;5067841;28;1856;-61
2021/04/25 09:23:11;;;;;;;;;;;;;;;19.01;36.46;101255.38;5069063;28;1909;-55
2021/04/25 09:25:37;;;;;;;;;;;;;;;18.95;35.33;101242.47;5071917;28;1696;-59
2021/04/25 09:28:11;;;;;;;;;;;;;;;18.84;34.97;101266.59;5072024;28;1624;-59
2021/04/25 09:30:37;;;;;;;;;;;;;;;18.53;35.31;101260.94;5071118;28;1588;-59
2021/04/25 09:33:04;;;;;;;;;;;;;;;18.61;36.99;101260.34;5067214;28;1406;-59
2021/04/25 09:35:31;;;;;;;;;;;;;;;18.79;36.49;101250.00;5071922;28;1537;-59
2021/04/25 09:37:58;;;;;;;;;;;;;;;18.87;35.33;101239.56;5065148;28;1585;-59
2021/04/25 09:40:25;;;;;;;;;;;;;;;18.92;37.26;101232.00;5070709;28;1373;-59
2021/04/25 09:43:04;;;;;;;;;;;;;;;19.01;36.71;101238.44;5070768;28;1973;-59
2021/04/25 09:45:32;;;;;;;;;;;;;;;19.06;36.79;101228.22;5064881;28;1398;-59
2021/04/25 09:47:59;;;;;;;;;;;;;;;19.23;36.23;101224.13;5069518;28;1576;-59
2021/04/25 09:50:26;;;;;;;;;;;;;;;19.17;37.52;101220.13;5067942;28;1585;-58
2021/04/25 09:52:52;;;;;;;;;;;;;;;19.17;39.52;101224.66;5070992;28;1321;-60
2021/04/25 09:55:21;;;;;;;;;;;;;;;19.17;39.41;101216.59;5070196;28;1336;-62
2021/04/25 09:57:48;;;;;;;;;;;;;;;19.26;40.82;101210.50;5067183;28;1704;-62
2021/04/25 10:00:14;;;;;;;;;;;;;;;19.34;41.77;101201.78;5070629;28;1304;-59
2021/04/25 10:03:11;;;;;;;;;;;;;;;19.45;41.81;101205.28;5063768;28;1977;-59
2021/04/25 10:05:37;;;;;;;;;;;;;;;19.39;43.23;101202.28;4984431;28;1668;-60
2021/04/25 10:08:04;;;;;;;;;;;;;;;19.23;41.54;101202.69;5047780;28;1313;-60
2021/04/25 10:10:31;;;;;;;;;;;;;;;19.20;41.54;101195.75;5067461;28;1548;-60
2021/04/25 10:12:57;;;;;;;;;;;;;;;19.24;41.41;101188.31;5069694;28;1381;-62
2021/04/25 10:15:23;;;;;;;;;;;;;;;19.14;39.38;101196.28;5067764;28;1362;-63
2021/04/25 10:17:50;;;;;;;;;;;;;;;19.07;40.83;101187.84;5071137;28;1644;-62
2021/04/25 10:20:17;;;;;;;;;;;;;;;19.09;41.77;101174.34;5023401;28;11283;-59
2021/04/25 10:22:44;;;;;;;;;;;;;;;19.25;40.99;101184.66;5065580;28;1987;-60
2021/04/25 10:25:11;;;;;;;;;;;;;;;19.37;40.31;101186.31;5063758;28;1351;-59
2021/04/25 10:27:40;;;;;;;;;;;;;;;19.43;40.93;101169.69;5068463;28;1435;-67
2021/04/25 10:30:07;;;;;;;;;;;;;;;19.32;40.82;101166.22;5067348;28;1388;-66
2021/04/25 10:32:34;;;;;;;;;;;;;;;19.26;40.84;101164.91;5067712;28;1338;-66
2021/04/25 10:35:19;;;;;;;;;;;;;;;19.21;42.17;101156.38;5065446;28;1415;-61
2021/04/25 10:37:46;;;;;;;;;;;;;;;19.18;42.99;101149.47;5064276;28;1314;-64
2021/04/25 10:40:22;;;;;;;;;;;;;;;19.15;44.24;101140.81;5069585;28;1418;-60
2021/04/25 10:42:57;;;;;;;;;;;;;;;19.16;42.88;101135.34;5067066;28;1977;-63
2021/04/25 10:45:30;;;;;;;;;;;;;;;19.19;41.63;101151.16;5063512;28;1620;-64
2021/04/25 10:48:14;;;;;;;;;;;;;;;19.13;40.43;101137.41;5069899;28;1366;-65
2021/04/25 10:50:45;;;;;;;;;;;;;;;19.19;41.84;101131.53;5058189;28;1391;-62
2021/04/25 10:53:32;;;;;;;;;;;;;;;19.25;43.09;101131.03;5067833;28;1355;-61
2021/04/25 10:56:31;;;;;;;;;;;;;;;19.27;40.61;101121.03;5060707;28;1801;-60
2021/04/25 10:59:26;;;;;;;;;;;;;;;19.22;41.79;101123.25;5070682;28;1266;-60
2021/04/25 11:01:53;;;;;;;;;;;;;;;19.04;40.68;101131.84;5067815;28;1988;-66
2021/04/25 11:04:38;;;;;;;;;;;;;;;19.12;44.07;101119.59;5066915;28;1897;-60
2021/04/25 11:07:32;;;;;;;;;;;;;;;19.23;44.44;101111.53;5069911;28;1668;-65
2021/04/25 11:09:58;;;;;;;;;;;;;;;19.27;43.38;101110.28;5069899;28;1370;-64
2021/04/25 11:12:45;;;;;;;;;;;;;;;19.29;43.69;101108.34;5068698;28;1437;-64
2021/04/25 11:15:12;;;;;;;;;;;;;;;19.22;42.02;101115.22;5066120;28;1381;-63
2021/04/25 11:17:39;;;;;;;;;;;;;;;19.23;43.33;101122.25;5067022;28;1475;-59
2021/04/25 11:20:23;;;;;;;;;;;;;;;19.23;42.44;101111.53;5061176;28;1629;-58
2021/04/25 11:22:49;;;;;;;;;;;;;;;19.28;44.01;101120.91;5069997;28;1980;-61
2021/04/25 11:25:30;;;;;;;;;;;;;;;19.23;42.24;101100.81;5069447;28;1641;-55
2021/04/25 11:27:57;;;;;;;;;;;;;;;19.31;42.65;101114.41;5061535;28;2222;-58
2021/04/25 11:30:36;;;;;;;;;;;;;;;19.36;43.52;101080.03;5063384;28;1308;-58
2021/04/25 11:33:20;;;;;;;;;;;;;;;19.43;42.55;101109.84;5069179;28;1378;-55
2021/04/25 11:35:47;;;;;;;;;;;;;;;19.28;42.28;101112.00;5066262;28;1457;-57
2021/04/25 11:38:13;;;;;;;;;;;;;;;19.24;42.13;101110.56;5065345;28;1444;-56
2021/04/25 11:40:40;;;;;;;;;;;;;;;19.26;41.21;101084.47;5065673;28;1522;-57
2021/04/25 11:43:06;;;;;;;;;;;;;;;19.26;42.98;101100.56;5066534;28;1975;-58
2021/04/25 11:45:32;;;;;;;;;;;;;;;19.24;40.75;101098.00;5072060;28;1719;-58
2021/04/25 11:47:59;;;;;;;;;;;;;;;19.24;41.52;101091.81;5073932;28;1581;-57
2021/04/25 11:50:29;;;;;;;;;;;;;;;19.34;42.31;101087.34;5070316;28;1128;-58
2021/04/25 11:52:56;;;;;;;;;;;;;;;19.37;43.25;101075.50;5074117;28;1728;-57
2021/04/25 11:55:22;;;;;;;;;;;;;;;19.22;41.04;101075.00;5073322;28;1446;-57
2021/04/25 11:57:50;;;;;;;;;;;;;;;19.33;42.80;101076.75;5071445;28;1397;-59
2021/04/25 12:00:18;;;;;;;;;;;;;;;19.23;41.63;101069.47;5073365;28;1544;-57
2021/04/25 12:02:48;;;;;;;;;;;;;;;19.21;41.02;101075.97;5075081;28;1993;-55
2021/04/25 12:05:15;;;;;;;;;;;;;;;19.13;39.72;101081.13;5076038;28;1206;-56
2021/04/25 12:07:42;;;;;;;;;;;;;;;19.04;40.69;101072.88;5075196;28;1518;-55
2021/04/25 12:10:14;;;;;;;;;;;;;;;18.99;39.86;101072.38;5075748;28;1422;-58
2021/04/25 12:12:59;;;;;;;;;;;;;;;19.18;41.10;101073.53;5075479;28;1521;-56
2021/04/25 12:15:26;;;;;;;;;;;;;;;19.21;41.27;101070.59;5073624;28;1458;-57
2021/04/25 12:17:52;;;;;;;;;;;;;;;19.17;39.25;101069.16;5075105;28;1405;-56
2021/04/25 12:20:18;;;;;;;;;;;;;;;19.07;39.64;101056.50;5076317;28;1493;-56
2021/04/25 12:22:44;;;;;;;;;;;;;;;19.04;39.93;101050.59;5072542;28;1906;-56
2021/04/25 12:25:11;;;;;;;;;;;;;;;19.04;39.63;101043.38;5075544;28;1395;-56
2021/04/25 12:27:38;;;;;;;;;;;;;;;19.06;38.63;101041.44;5075013;28;1176;-56
2021/04/25 12:30:15;;;;;;;;;;;;;;;19.06;38.61;101029.88;5071545;28;1351;-56
2021/04/25 12:32:41;;;;;;;;;;;;;;;19.02;38.34;101036.44;5072930;28;1363;-56
2021/04/25 12:35:07;;;;;;;;;;;;;;;19.00;37.79;101036.59;5076145;28;1314;-56
2021/04/25 12:37:34;;;;;;;;;;;;;;;18.96;38.62;101013.72;5073866;28;1611;-56
2021/04/25 12:40:00;;;;;;;;;;;;;;;18.98;38.76;101033.19;5075013;28;1976;-56
2021/04/25 12:42:27;;;;;;;;;;;;;;;18.97;39.65;101036.81;5073849;28;1902;-56
2021/04/25 12:44:53;;;;;;;;;;;;;;;18.98;40.01;101027.81;5071375;28;1328;-56
2021/04/25 12:47:28;;;;;;;;;;;;;;;19.01;39.94;101011.47;5074144;28;1587;-56
2021/04/25 12:49:54;;;;;;;;;;;;;;;19.01;40.33;101011.47;5075601;28;1461;-56